Ventura — ZCDT2 — position and weather

sailwx.info

Track history (hours):
 
Tides and Currents Weather Stations Pressure Air Temp Water Temp Dewpoint Dewpoint Depression Visibility Wind Speed Wind Dir Waves Ship Positions

Ventura

Last reported at 2017-Mar-24 19:31 UTC. Time now 2017-Mar-24 20:05 UTC.
Position N 37°11' W 000°47'.

Length 289 m; draft 8.6 m.

Type: Passenger vessel. MMSI: 310562000.

Date/timePositionNaut miles runAvg speedWind from/ knotsBaromVisibWave heightAir tempDewpointWater temp
2017-Mar-24 19:31N 37°11' W 000°47'10218.4
2017-Mar-24 14:00N 36°18' W 002°36'12521.8 220 / 101014.627.0 11.0 5.615.5
2017-Mar-24 08:15N 36°00' W 005°09'1622.3
2017-Mar-24 07:33N 35°57' W 005°28'2120.5
2017-Mar-24 06:33N 35°54' W 005°54'6919.5
2017-Mar-24 03:00N 36°06' W 007°18'7023.4 360 / 121013.510.8 13.0 5.616.4
2017-Mar-24 00:00N 36°24' W 008°42'11417.7 340 / 251015.310.8 14.5 4.616.0
2017-Mar-23 17:33N 38°02' W 009°55'2020.1
2017-Mar-23 16:33N 38°22' W 010°00'2020.4
2017-Mar-23 15:34N 38°42' W 010°06'0 0.8
2017-Mar-23 15:00N 38°42' W 010°06'4028.1 330 / 181015.310.8 12.0 6.814.7
2017-Mar-23 13:33N 39°22' W 010°06'20020.9
2017-Mar-23 04:00N 42°42' W 010°06'23819.8 320 / 231013.010.8 9.0 3.213.7
2017-Mar-22 16:00N 46°12' W 007°30'15918.9 330 / 341004.010.8 7.5 1.312.6
2017-Mar-22 07:33N 48°27' W 005°26'1919.0
2017-Mar-22 06:33N 48°42' W 005°09'1818.5
2017-Mar-22 05:33N 48°54' W 004°48'3220.7
2017-Mar-22 04:00N 49°12' W 004°06'3815.7 240 / 101000.3 5.4 7.0 2.111.9
2017-Mar-22 01:33N 49°42' W 003°30'1717.0
2017-Mar-22 00:33N 49°52' W 003°08'1717.5
2017-Mar-21 23:33N 49°60' W 002°44'1918.2
2017-Mar-21 22:32N 50°08' W 002°18'1919.2
2017-Mar-21 21:33N 50°16' W 001°52'2019.8
2017-Mar-21 20:33N 50°25' W 001°24'1818.4
2017-Mar-21 19:33N 50°35' W 000°60'1211.6
2017-Mar-21 18:34N 50°45' W 001°07'10 9.8
2017-Mar-21 17:34N 50°51' W 001°20'5 4.9
2017-Mar-21 16:33N 50°54' W 001°26'0 0.0
2017-Mar-21 15:33N 50°54' W 001°26'0 0.0
2017-Mar-21 14:33N 50°54' W 001°26'0 0.0
2017-Mar-21 13:33N 50°54' W 001°26'0 0.0
2017-Mar-21 12:33N 50°54' W 001°26'0 0.0
2017-Mar-21 11:30N 50°54' W 001°26'0 0.0
2017-Mar-21 10:33N 50°54' W 001°26'0 0.0
2017-Mar-21 09:33N 50°54' W 001°26'0 0.0
2017-Mar-21 08:33N 50°54' W 001°26'0 0.0
2017-Mar-21 07:33N 50°54' W 001°26'0 0.0
2017-Mar-21 06:30N 50°54' W 001°26'0 0.3
2017-Mar-21 05:33N 50°54' W 001°26'6 6.0
2017-Mar-21 04:34N 50°50' W 001°19'1110.7
2017-Mar-21 03:33N 50°45' W 001°05'1110.8
2017-Mar-21 02:33N 50°34' W 001°00'1817.8
2017-Mar-21 01:33N 50°26' W 001°26'1919.2
2017-Mar-21 00:33N 50°18' W 001°53'1918.8
2017-Mar-20 23:34N 50°04' W 002°13'1817.9
2017-Mar-20 22:32N 49°53' W 002°36'1818.3
2017-Mar-20 21:32N 49°45' W 003°01'1718.0
2017-Mar-20 20:33N 49°35' W 003°24'5717.6
2017-Mar-20 17:18N 49°00' W 004°33'1317.3
2017-Mar-20 16:33N 48°53' W 004°49'1527.4
2017-Mar-20 16:00N 48°42' W 005°06'2 4.6 280 / 291008.710.8 15.010.311.6
2017-Mar-20 15:33N 48°42' W 005°09'1817.8
2017-Mar-20 14:33N 48°28' W 005°26'5618.4
2017-Mar-20 11:31N 47°37' W 005°60'15620.8
2017-Mar-20 04:00N 45°12' W 007°24'8117.4 250 / 201016.810.8 12.5 6.213.0
2017-Mar-19 23:22N 43°60' W 008°15'7910.8
2017-Mar-19 16:00N 43°12' W 009°42'16415.6 010 / 191021.3 5.4 12.5 7.413.9
2017-Mar-19 05:27N 41°01' W 011°54'3221.9
2017-Mar-19 04:00N 40°30' W 012°06'2313.0 020 / 251022.4 5.4 13.5 8.514.7
2017-Mar-19 02:14N 40°11' W 012°22'2016.9
2017-Mar-19 01:03N 39°53' W 012°32'917.1
2017-Mar-19 00:33N 39°45' W 012°37'1817.0
2017-Mar-18 23:31N 39°28' W 012°46'1616.8
2017-Mar-18 22:33N 39°14' W 012°54'1716.7
2017-Mar-18 21:34N 38°58' W 013°02'1716.7
2017-Mar-18 20:34N 38°43' W 013°11'1616.4
2017-Mar-18 19:33N 38°28' W 013°19'1716.8
2017-Mar-18 18:34N 38°12' W 013°27'1716.7
2017-Mar-18 17:33N 37°57' W 013°36'1716.9
2017-Mar-18 16:33N 37°41' W 013°44'1831.2
2017-Mar-18 16:00N 37°24' W 013°48'4 8.8 020 / 241021.0 5.4 14.812.016.5
2017-Mar-18 15:34N 37°26' W 013°52'1716.9
2017-Mar-18 14:34N 37°10' W 014°01'1716.8
2017-Mar-18 13:33N 36°55' W 014°09'1816.5
2017-Mar-18 12:28N 36°38' W 014°18'1415.6
2017-Mar-18 11:34N 36°25' W 014°25'1514.7
2017-Mar-18 10:34N 36°12' W 014°32'10315.6
2017-Mar-18 04:00N 34°36' W 015°18'118 4.9 080 / 321016.4 5.4 16.512.017.6
2017-Mar-17 04:00N 32°42' W 015°54'16812.9 010 / 281014.210.8 16.011.418.0
2017-Mar-16 15:00N 33°06' W 012°36'280 8.0 010 / 121013.510.8 16.210.217.9
2017-Mar-15 04:00N 34°24' W 007°12'11217.1 090 / 121014.210.8 16.010.317.1
2017-Mar-14 21:26N 35°54' W 005°51'1719.3
2017-Mar-14 20:33N 35°59' W 005°31'1918.8
2017-Mar-14 19:33N 36°08' W 005°11'  
Track history (hours):
 
Tides and Currents Weather Stations Pressure Air Temp Water Temp Dewpoint Dewpoint Depression Visibility Wind Speed Wind Dir Waves Ship Positions

Ventura

Last reported at 2017-Mar-24 19:31 UTC. Time now 2017-Mar-24 20:05 UTC.
Position N 37°11' W 000°47'.

Length 289 m; draft 8.6 m.

Type: Passenger vessel. MMSI: 310562000.

Date/timePositionNaut miles runAvg speedWind from/ knotsBaromVisibWave heightAir tempDewpointWater temp
2017-Mar-24 19:31N 37°11' W 000°47'10218.4
2017-Mar-24 14:00N 36°18' W 002°36'12521.8 220 / 101014.627.0 11.0 5.615.5
2017-Mar-24 08:15N 36°00' W 005°09'1622.3
2017-Mar-24 07:33N 35°57' W 005°28'2120.5
2017-Mar-24 06:33N 35°54' W 005°54'6919.5
2017-Mar-24 03:00N 36°06' W 007°18'7023.4 360 / 121013.510.8 13.0 5.616.4
2017-Mar-24 00:00N 36°24' W 008°42'11417.7 340 / 251015.310.8 14.5 4.616.0
2017-Mar-23 17:33N 38°02' W 009°55'2020.1
2017-Mar-23 16:33N 38°22' W 010°00'2020.4
2017-Mar-23 15:34N 38°42' W 010°06'0 0.8
2017-Mar-23 15:00N 38°42' W 010°06'4028.1 330 / 181015.310.8 12.0 6.814.7
2017-Mar-23 13:33N 39°22' W 010°06'20020.9
2017-Mar-23 04:00N 42°42' W 010°06'23819.8 320 / 231013.010.8 9.0 3.213.7
2017-Mar-22 16:00N 46°12' W 007°30'15918.9 330 / 341004.010.8 7.5 1.312.6
2017-Mar-22 07:33N 48°27' W 005°26'1919.0
2017-Mar-22 06:33N 48°42' W 005°09'1818.5
2017-Mar-22 05:33N 48°54' W 004°48'3220.7
2017-Mar-22 04:00N 49°12' W 004°06'3815.7 240 / 101000.3 5.4 7.0 2.111.9
2017-Mar-22 01:33N 49°42' W 003°30'1717.0
2017-Mar-22 00:33N 49°52' W 003°08'1717.5
2017-Mar-21 23:33N 49°60' W 002°44'1918.2
2017-Mar-21 22:32N 50°08' W 002°18'1919.2
2017-Mar-21 21:33N 50°16' W 001°52'2019.8
2017-Mar-21 20:33N 50°25' W 001°24'1818.4
2017-Mar-21 19:33N 50°35' W 000°60'1211.6
2017-Mar-21 18:34N 50°45' W 001°07'10 9.8
2017-Mar-21 17:34N 50°51' W 001°20'5 4.9
2017-Mar-21 16:33N 50°54' W 001°26'0 0.0
2017-Mar-21 15:33N 50°54' W 001°26'0 0.0
2017-Mar-21 14:33N 50°54' W 001°26'0 0.0
2017-Mar-21 13:33N 50°54' W 001°26'0 0.0
2017-Mar-21 12:33N 50°54' W 001°26'0 0.0
2017-Mar-21 11:30N 50°54' W 001°26'0 0.0
2017-Mar-21 10:33N 50°54' W 001°26'0 0.0
2017-Mar-21 09:33N 50°54' W 001°26'0 0.0
2017-Mar-21 08:33N 50°54' W 001°26'0 0.0
2017-Mar-21 07:33N 50°54' W 001°26'0 0.0
2017-Mar-21 06:30N 50°54' W 001°26'0 0.3
2017-Mar-21 05:33N 50°54' W 001°26'6 6.0
2017-Mar-21 04:34N 50°50' W 001°19'1110.7
2017-Mar-21 03:33N 50°45' W 001°05'1110.8
2017-Mar-21 02:33N 50°34' W 001°00'1817.8
2017-Mar-21 01:33N 50°26' W 001°26'1919.2
2017-Mar-21 00:33N 50°18' W 001°53'1918.8
2017-Mar-20 23:34N 50°04' W 002°13'1817.9
2017-Mar-20 22:32N 49°53' W 002°36'1818.3
2017-Mar-20 21:32N 49°45' W 003°01'1718.0
2017-Mar-20 20:33N 49°35' W 003°24'5717.6
2017-Mar-20 17:18N 49°00' W 004°33'1317.3
2017-Mar-20 16:33N 48°53' W 004°49'1527.4
2017-Mar-20 16:00N 48°42' W 005°06'2 4.6 280 / 291008.710.8 15.010.311.6
2017-Mar-20 15:33N 48°42' W 005°09'1817.8
2017-Mar-20 14:33N 48°28' W 005°26'5618.4
2017-Mar-20 11:31N 47°37' W 005°60'15620.8
2017-Mar-20 04:00N 45°12' W 007°24'8117.4 250 / 201016.810.8 12.5 6.213.0
2017-Mar-19 23:22N 43°60' W 008°15'7910.8
2017-Mar-19 16:00N 43°12' W 009°42'16415.6 010 / 191021.3 5.4 12.5 7.413.9
2017-Mar-19 05:27N 41°01' W 011°54'3221.9
2017-Mar-19 04:00N 40°30' W 012°06'2313.0 020 / 251022.4 5.4 13.5 8.514.7
2017-Mar-19 02:14N 40°11' W 012°22'2016.9
2017-Mar-19 01:03N 39°53' W 012°32'917.1
2017-Mar-19 00:33N 39°45' W 012°37'1817.0
2017-Mar-18 23:31N 39°28' W 012°46'1616.8
2017-Mar-18 22:33N 39°14' W 012°54'1716.7
2017-Mar-18 21:34N 38°58' W 013°02'1716.7
2017-Mar-18 20:34N 38°43' W 013°11'1616.4
2017-Mar-18 19:33N 38°28' W 013°19'1716.8
2017-Mar-18 18:34N 38°12' W 013°27'1716.7
2017-Mar-18 17:33N 37°57' W 013°36'1716.9
2017-Mar-18 16:33N 37°41' W 013°44'1831.2
2017-Mar-18 16:00N 37°24' W 013°48'4 8.8 020 / 241021.0 5.4 14.812.016.5
2017-Mar-18 15:34N 37°26' W 013°52'1716.9
2017-Mar-18 14:34N 37°10' W 014°01'1716.8
2017-Mar-18 13:33N 36°55' W 014°09'1816.5
2017-Mar-18 12:28N 36°38' W 014°18'1415.6
2017-Mar-18 11:34N 36°25' W 014°25'1514.7
2017-Mar-18 10:34N 36°12' W 014°32'10315.6
2017-Mar-18 04:00N 34°36' W 015°18'118 4.9 080 / 321016.4 5.4 16.512.017.6
2017-Mar-17 04:00N 32°42' W 015°54'16812.9 010 / 281014.210.8 16.011.418.0
2017-Mar-16 15:00N 33°06' W 012°36'280 8.0 010 / 121013.510.8 16.210.217.9
2017-Mar-15 04:00N 34°24' W 007°12'11217.1 090 / 121014.210.8 16.010.317.1
2017-Mar-14 21:26N 35°54' W 005°51'1719.3
2017-Mar-14 20:33N 35°59' W 005°31'1918.8
2017-Mar-14 19:33N 36°08' W 005°11'  

Dump ship's entire track history